createdAt,value
2019-02-14T00:02:12.957Z,6.80
2019-02-14T00:04:44.299Z,6.80
2019-02-14T00:07:14.639Z,6.70
2019-02-14T00:09:44.979Z,6.70
2019-02-14T00:14:44.936Z,6.70
2019-02-14T00:19:45.496Z,6.80
2019-02-14T00:22:15.944Z,6.80
2019-02-14T00:24:46.346Z,6.70
2019-02-14T00:27:16.931Z,6.80
2019-02-14T00:29:47.631Z,6.80
2019-02-14T00:32:17.984Z,6.80
2019-02-14T00:34:48.316Z,6.90
2019-02-14T00:37:19.060Z,6.90
2019-02-14T00:39:49.396Z,6.90
2019-02-14T00:42:19.767Z,6.90
2019-02-14T00:44:50.104Z,6.90
2019-02-14T00:47:20.486Z,6.90
2019-02-14T00:49:50.823Z,6.90
2019-02-14T00:52:21.195Z,6.90
2019-02-14T00:54:51.635Z,6.90
2019-02-14T00:57:22.064Z,6.90
2019-02-14T00:59:52.432Z,7.00
2019-02-14T01:02:22.767Z,6.90
2019-02-14T01:04:53.155Z,6.90
2019-02-14T01:07:23.568Z,6.90
2019-02-14T01:09:54.003Z,6.90
2019-02-14T01:12:24.352Z,6.90
2019-02-14T01:14:54.772Z,6.90
2019-02-14T01:17:25.112Z,6.90
2019-02-14T01:19:55.447Z,6.90
2019-02-14T01:22:25.791Z,6.90
2019-02-14T01:24:56.733Z,6.90
2019-02-14T01:27:28.043Z,6.90
2019-02-14T01:29:58.433Z,6.80
2019-02-14T01:32:29.112Z,6.80
2019-02-14T01:34:59.499Z,6.80
2019-02-14T01:37:29.875Z,6.80
2019-02-14T01:40:00.308Z,6.70
2019-02-14T01:42:30.659Z,6.70
2019-02-14T01:45:00.983Z,6.70
2019-02-14T01:47:31.327Z,6.70
2019-02-14T01:50:01.679Z,6.70
2019-02-14T01:52:32.043Z,6.80
2019-02-14T01:55:02.447Z,6.80
2019-02-14T01:57:32.811Z,6.80
2019-02-14T02:00:07.160Z,6.80
2019-02-14T02:02:37.507Z,6.80
2019-02-14T02:05:08.060Z,6.70
2019-02-14T02:07:38.396Z,6.70
2019-02-14T02:12:38.991Z,6.60
2019-02-14T02:15:11.148Z,6.60
2019-02-14T02:17:41.574Z,6.70
2019-02-14T02:20:12.332Z,6.70
2019-02-14T02:22:42.796Z,6.70
2019-02-14T02:25:14.093Z,6.60
2019-02-14T02:27:44.537Z,6.60
2019-02-14T02:30:15.271Z,6.60
2019-02-14T02:32:45.701Z,6.60
2019-02-14T02:35:16.118Z,6.60
2019-02-14T02:37:46.524Z,6.60
2019-02-14T02:42:46.463Z,6.50
2019-02-14T02:47:46.579Z,6.50
2019-02-14T02:52:46.613Z,6.50
2019-02-14T02:57:46.575Z,6.40
2019-02-14T03:00:17.512Z,6.50
2019-02-14T03:02:47.884Z,6.50
2019-02-14T03:05:18.224Z,6.50
2019-02-14T03:07:48.557Z,6.50
2019-02-14T03:10:18.915Z,6.50
2019-02-14T03:12:49.688Z,6.50
2019-02-14T03:15:20.059Z,6.50
2019-02-14T03:17:50.406Z,6.50
2019-02-14T03:20:21.110Z,6.50
2019-02-14T03:25:21.147Z,6.50
2019-02-14T03:30:21.080Z,6.50
2019-02-14T03:32:51.476Z,6.50
2019-02-14T03:37:51.515Z,6.60
2019-02-14T03:40:21.847Z,6.60
2019-02-14T03:45:21.787Z,6.50
2019-02-14T03:50:21.753Z,6.50
2019-02-14T03:55:21.799Z,6.60
2019-02-14T04:00:21.760Z,6.50
2019-02-14T04:02:52.407Z,6.50
2019-02-14T04:05:22.787Z,6.50
2019-02-14T04:07:53.210Z,6.50
2019-02-14T04:10:23.601Z,6.50
2019-02-14T04:12:53.963Z,6.50
2019-02-14T04:15:24.292Z,6.50
2019-02-14T04:17:54.615Z,6.40
2019-02-14T04:20:24.971Z,6.50
2019-02-14T04:22:55.383Z,6.50
2019-02-14T04:25:25.715Z,6.40
2019-02-14T04:27:56.055Z,6.50
2019-02-14T04:30:26.388Z,6.50
2019-02-14T04:32:56.760Z,6.50
2019-02-14T04:35:27.100Z,6.40
2019-02-14T04:37:57.468Z,6.40
2019-02-14T04:40:33.482Z,6.50
2019-02-14T04:42:59.933Z,6.40
2019-02-14T04:45:30.267Z,6.40
2019-02-14T04:48:00.623Z,6.40
2019-02-14T04:50:30.967Z,6.40
2019-02-14T04:53:01.357Z,6.40
2019-02-14T04:55:31.696Z,6.50
2019-02-14T04:58:02.040Z,6.50
2019-02-14T05:00:32.380Z,6.40
2019-02-14T05:03:02.710Z,6.40
2019-02-14T05:05:33.079Z,6.40
2019-02-14T05:08:03.416Z,6.40
2019-02-14T05:10:33.755Z,6.30
2019-02-14T05:13:04.107Z,6.30
2019-02-14T05:15:34.571Z,6.40
2019-02-14T05:18:04.915Z,6.30
2019-02-14T05:20:35.475Z,6.30
2019-02-14T05:23:05.888Z,6.30
2019-02-14T05:25:37.223Z,6.30
2019-02-14T05:28:07.559Z,6.30
2019-02-14T05:30:37.923Z,6.30
2019-02-14T05:33:08.311Z,6.30
2019-02-14T05:35:38.676Z,6.40
2019-02-14T05:38:09.087Z,6.30
2019-02-14T05:40:39.528Z,6.40
2019-02-14T05:43:09.861Z,6.30
2019-02-14T05:45:40.292Z,6.40
2019-02-14T05:48:10.622Z,6.40
2019-02-14T05:50:40.989Z,6.40
2019-02-14T05:53:11.320Z,6.40
2019-02-14T05:55:41.663Z,6.40
2019-02-14T05:58:12.107Z,6.40
2019-02-14T06:00:42.740Z,6.40
2019-02-14T06:03:13.075Z,6.40
2019-02-14T06:05:43.468Z,6.40
2019-02-14T06:08:13.811Z,6.40
2019-02-14T06:13:14.194Z,6.40
2019-02-14T06:15:44.892Z,6.40
2019-02-14T06:18:15.244Z,6.50
2019-02-14T06:23:15.203Z,6.40
2019-02-14T06:28:15.161Z,6.50
2019-02-14T06:30:45.601Z,6.50
2019-02-14T06:33:16.287Z,6.50
2019-02-14T06:35:46.661Z,6.50
2019-02-14T06:40:47.151Z,6.50
2019-02-14T06:43:17.487Z,6.60
2019-02-14T06:45:47.815Z,6.50
2019-02-14T06:48:18.175Z,6.60
2019-02-14T06:50:48.515Z,6.50
2019-02-14T06:53:18.884Z,6.60
2019-02-14T06:55:49.212Z,6.60
2019-02-14T06:58:19.580Z,6.60
2019-02-14T07:00:49.924Z,6.60
2019-02-14T07:03:20.412Z,6.60
2019-02-14T07:05:50.748Z,6.60
2019-02-14T07:08:21.144Z,6.70
2019-02-14T07:10:51.558Z,6.70
2019-02-14T07:13:22.011Z,6.70
2019-02-14T07:15:52.344Z,6.70
2019-02-14T07:18:25.080Z,6.70
2019-02-14T07:20:55.509Z,6.70
2019-02-14T07:23:25.891Z,6.70
2019-02-14T07:25:56.267Z,6.70
2019-02-14T07:28:26.616Z,6.70
2019-02-14T07:30:56.999Z,6.80
2019-02-14T07:33:27.365Z,6.80
2019-02-14T07:38:27.363Z,6.90
2019-02-14T07:43:27.466Z,7.00
2019-02-14T07:45:57.944Z,7.00
2019-02-14T07:48:30.188Z,7.10
2019-02-14T07:51:00.536Z,7.10
2019-02-14T07:53:30.987Z,7.10
2019-02-14T07:56:10.263Z,7.20
2019-02-14T07:58:42.152Z,7.20
2019-02-14T08:01:12.486Z,7.20
2019-02-14T08:03:42.860Z,7.30
2019-02-14T08:06:13.231Z,7.30
2019-02-14T08:08:43.579Z,7.40
2019-02-14T08:11:13.927Z,7.40
2019-02-14T08:13:44.261Z,7.50
2019-02-14T08:16:14.719Z,7.50
2019-02-14T08:18:45.108Z,7.60
2019-02-14T08:21:15.481Z,7.70
2019-02-14T08:23:45.925Z,7.80
2019-02-14T08:26:16.330Z,8.10
2019-02-14T08:28:46.717Z,8.50
2019-02-14T08:33:47.055Z,9.10
2019-02-14T08:36:18.420Z,8.90
2019-02-14T08:38:48.770Z,8.80
2019-02-14T08:41:20.120Z,8.50
2019-02-14T08:43:50.924Z,8.50
2019-02-14T08:46:21.278Z,8.30
2019-02-14T08:48:51.684Z,8.30
2019-02-14T08:53:52.080Z,8.40
2019-02-14T08:58:52.131Z,8.40
2019-02-14T09:03:52.130Z,8.70
2019-02-14T09:08:52.138Z,8.80
2019-02-14T09:13:52.182Z,8.70
2019-02-14T09:18:52.449Z,8.50
2019-02-14T09:23:52.477Z,8.50
2019-02-14T09:31:24.050Z,8.40
2019-02-14T09:34:01.207Z,8.40
2019-02-14T09:36:31.664Z,8.40
2019-02-14T09:41:34.381Z,8.20
2019-02-14T09:44:04.882Z,8.20
2019-02-14T09:46:35.307Z,8.20
2019-02-14T09:51:38.407Z,8.20
2019-02-14T09:54:08.870Z,8.30
2019-02-14T09:56:39.316Z,8.30
2019-02-14T09:59:11.124Z,8.40
2019-02-14T10:01:41.566Z,8.30
2019-02-14T10:04:12.001Z,8.20
2019-02-14T10:06:42.777Z,8.20
2019-02-14T10:09:13.204Z,8.30
2019-02-14T10:11:50.581Z,8.20
2019-02-14T10:14:21.549Z,8.20
2019-02-14T10:16:51.981Z,8.20
2019-02-14T10:19:22.341Z,8.20
2019-02-14T10:21:52.707Z,8.10
2019-02-14T10:24:23.075Z,8.10
2019-02-14T10:26:53.480Z,8.10
2019-02-14T10:31:53.991Z,8.00
2019-02-14T10:34:24.437Z,8.10
2019-02-14T10:36:54.832Z,8.20
2019-02-14T10:39:25.217Z,8.20
2019-02-14T10:41:55.644Z,8.20
2019-02-14T10:44:26.012Z,8.30
2019-02-14T10:49:26.197Z,8.30
2019-02-14T10:51:56.621Z,8.30
2019-02-14T10:54:27.104Z,8.20
2019-02-14T10:59:27.101Z,8.30
2019-02-14T11:01:57.584Z,8.30
2019-02-14T11:04:27.944Z,8.40
2019-02-14T11:06:58.356Z,8.50
2019-02-14T11:09:28.858Z,8.50
2019-02-14T11:11:59.317Z,8.50
2019-02-14T11:14:30.654Z,8.50
2019-02-14T11:17:01.335Z,8.60
2019-02-14T11:19:34.248Z,8.50
2019-02-14T11:22:04.699Z,8.50
2019-02-14T11:24:35.118Z,8.40
2019-02-14T11:27:05.515Z,8.40
2019-02-14T11:29:35.923Z,8.40
2019-02-14T11:32:06.327Z,8.40
2019-02-14T11:34:37.140Z,8.40
2019-02-14T11:37:07.475Z,8.40
2019-02-14T11:39:37.851Z,8.40
2019-02-14T11:42:08.184Z,8.50
2019-02-14T11:44:40.003Z,8.40
2019-02-14T11:47:10.599Z,8.40
2019-02-14T11:49:41.048Z,8.40
2019-02-14T11:52:11.515Z,8.40
2019-02-14T11:54:43.392Z,8.50
2019-02-14T11:57:13.812Z,8.80
2019-02-14T11:59:44.255Z,8.90
2019-02-14T12:02:14.732Z,9.10
2019-02-14T12:04:45.090Z,9.30
2019-02-14T12:07:15.472Z,9.70
2019-02-14T12:09:45.956Z,9.60
2019-02-14T12:12:16.365Z,9.40
2019-02-14T12:14:46.916Z,9.30
2019-02-14T12:17:17.296Z,9.30
2019-02-14T12:19:48.932Z,9.30
2019-02-14T12:22:19.533Z,9.20
2019-02-14T12:24:49.881Z,9.10
2019-02-14T12:27:44.499Z,9.00
2019-02-14T12:30:16.035Z,9.20
2019-02-14T12:32:48.084Z,9.10
2019-02-14T12:35:18.455Z,9.00
2019-02-14T12:37:48.916Z,8.80
2019-02-14T12:40:19.608Z,8.60
2019-02-14T12:42:50.931Z,8.60
2019-02-14T12:45:23.569Z,8.60
2019-02-14T12:47:53.642Z,8.80
2019-02-14T12:50:24.034Z,9.00
2019-02-14T12:55:24.067Z,9.20
2019-02-14T12:57:54.429Z,9.20
2019-02-14T13:00:24.866Z,9.10
2019-02-14T13:05:24.803Z,8.80
2019-02-14T13:07:55.176Z,8.80
2019-02-14T13:10:25.512Z,8.70
2019-02-14T13:12:55.886Z,8.60
2019-02-14T13:15:26.335Z,8.60
2019-02-14T13:17:56.684Z,8.50
2019-02-14T13:20:27.050Z,8.50
2019-02-14T13:25:27.023Z,8.70
2019-02-14T13:27:57.434Z,8.70
2019-02-14T13:30:27.863Z,8.80
2019-02-14T13:32:58.296Z,8.90
2019-02-14T13:35:28.645Z,8.90
2019-02-14T13:37:59.119Z,8.80
2019-02-14T13:40:48.681Z,8.80
2019-02-14T13:45:48.809Z,9.00
2019-02-14T13:50:49.967Z,9.00
2019-02-14T13:53:20.321Z,8.70
2019-02-14T13:55:50.800Z,8.60
2019-02-14T13:58:21.156Z,8.50
2019-02-14T14:00:51.609Z,8.50
2019-02-14T14:03:22.051Z,8.40
2019-02-14T14:05:52.504Z,8.40
2019-02-14T14:08:22.868Z,8.40
2019-02-14T14:10:53.291Z,8.40
2019-02-14T14:13:23.983Z,8.40
2019-02-14T14:15:54.472Z,8.40
2019-02-14T14:18:24.936Z,8.40
2019-02-14T14:23:28.539Z,8.40
2019-02-14T14:25:58.980Z,8.30
2019-02-14T14:28:37.456Z,8.30
2019-02-14T14:31:07.844Z,8.30
2019-02-14T14:33:38.196Z,8.20
2019-02-14T14:36:08.587Z,8.30
2019-02-14T14:38:39.325Z,8.20
2019-02-14T14:41:10.048Z,8.20
2019-02-14T14:43:50.619Z,8.20
2019-02-14T14:46:42.712Z,8.10
2019-02-14T14:49:13.176Z,8.00
2019-02-14T14:51:44.555Z,7.90
2019-02-14T14:54:15.022Z,7.90
2019-02-14T14:56:45.447Z,7.90
2019-02-14T14:59:15.911Z,7.80
2019-02-14T15:01:46.440Z,7.80
2019-02-14T15:04:16.853Z,7.70
2019-02-14T15:06:47.332Z,7.80
2019-02-14T15:09:17.777Z,7.70
2019-02-14T15:11:48.326Z,7.70
2019-02-14T15:14:18.820Z,7.60
2019-02-14T15:16:49.246Z,7.60
2019-02-14T15:19:19.730Z,7.60
2019-02-14T15:21:50.104Z,7.60
2019-02-14T15:24:20.596Z,7.50
2019-02-14T15:26:50.975Z,7.50
2019-02-14T15:29:21.447Z,7.50
2019-02-14T15:31:51.900Z,7.40
2019-02-14T15:34:22.445Z,7.40
2019-02-14T15:36:53.080Z,7.40
2019-02-14T15:39:23.493Z,7.40
2019-02-14T15:41:56.098Z,7.40
2019-02-14T15:44:25.947Z,7.30
2019-02-14T15:49:37.980Z,7.30
2019-02-14T15:52:11.633Z,7.20
2019-02-14T15:54:43.721Z,7.20
2019-02-14T15:57:15.890Z,7.20
2019-02-14T15:59:46.221Z,7.20
2019-02-14T16:02:16.804Z,7.20
2019-02-14T16:04:47.309Z,7.20
2019-02-14T16:07:17.816Z,7.20
2019-02-14T16:09:48.784Z,7.10
2019-02-14T16:12:19.982Z,7.10
2019-02-14T16:14:51.423Z,7.10
2019-02-14T16:19:51.844Z,7.10
2019-02-14T16:22:29.856Z,7.00
2019-02-14T16:24:54.721Z,7.00
2019-02-14T16:27:30.309Z,7.00
2019-02-14T16:30:00.707Z,7.00
2019-02-14T16:35:01.138Z,6.90
2019-02-14T16:37:31.736Z,6.90
2019-02-14T16:40:07.119Z,6.90
2019-02-14T16:42:37.745Z,6.90
2019-02-14T16:45:08.310Z,6.90
2019-02-14T16:48:09.049Z,6.90
2019-02-14T16:50:39.520Z,6.90
2019-02-14T16:53:10.505Z,6.90
2019-02-14T16:55:40.912Z,6.90
2019-02-14T16:58:14.124Z,6.90
2019-02-14T17:00:46.809Z,6.90
2019-02-14T17:03:17.215Z,6.90
2019-02-14T17:05:47.622Z,6.90
2019-02-14T17:08:18.065Z,6.90
2019-02-14T17:10:48.552Z,6.90
2019-02-14T17:13:18.987Z,6.90
2019-02-14T17:15:49.485Z,6.80
2019-02-14T17:18:20.030Z,6.80
2019-02-14T17:20:50.499Z,6.80
2019-02-14T17:23:21.046Z,6.80
2019-02-14T17:25:51.532Z,6.80
2019-02-14T17:28:22.379Z,6.80
2019-02-14T17:33:24.116Z,6.80
2019-02-14T17:35:54.511Z,6.80
2019-02-14T17:38:25.060Z,6.80
2019-02-14T17:40:57.056Z,6.80
2019-02-14T17:43:27.516Z,6.80
2019-02-14T17:48:27.569Z,6.80
2019-02-14T17:50:57.923Z,6.70
2019-02-14T17:53:28.752Z,6.70
2019-02-14T17:55:59.104Z,6.70
2019-02-14T17:58:29.841Z,6.70
2019-02-14T18:01:00.296Z,6.80
2019-02-14T18:03:30.675Z,6.80
2019-02-14T18:06:01.121Z,6.80
2019-02-14T18:08:31.599Z,6.80
2019-02-14T18:11:02.317Z,6.80
2019-02-14T18:13:33.768Z,6.70
2019-02-14T18:16:04.233Z,6.70
2019-02-14T18:18:34.768Z,6.70
2019-02-14T18:23:34.956Z,6.70
2019-02-14T18:26:05.375Z,6.70
2019-02-14T18:28:35.875Z,6.70
2019-02-14T18:31:07.374Z,6.70
2019-02-14T18:33:38.203Z,6.70
2019-02-14T18:36:09.004Z,6.60
2019-02-14T18:38:40.069Z,6.70
2019-02-14T18:41:10.571Z,6.60
2019-02-14T18:43:40.929Z,6.60
2019-02-14T18:46:12.724Z,6.60
2019-02-14T18:48:43.087Z,6.70
2019-02-14T18:51:13.459Z,6.60
2019-02-14T18:53:43.796Z,6.60
2019-02-14T18:56:14.264Z,6.60
2019-02-14T18:58:44.610Z,6.60
2019-02-14T19:01:15.019Z,6.50
2019-02-14T19:03:45.431Z,6.60
2019-02-14T19:06:15.790Z,6.50
2019-02-14T19:08:46.188Z,6.50
2019-02-14T19:11:16.860Z,6.50
2019-02-14T19:13:47.263Z,6.50
2019-02-14T19:16:17.615Z,6.50
2019-02-14T19:18:48.066Z,6.60
2019-02-14T19:21:18.455Z,6.60
2019-02-14T19:23:48.884Z,6.50
2019-02-14T19:26:19.288Z,6.50
2019-02-14T19:28:49.633Z,6.50
2019-02-14T19:31:19.967Z,6.40
2019-02-14T19:33:50.346Z,6.40
2019-02-14T19:36:20.770Z,6.40
2019-02-14T19:38:51.172Z,6.40
2019-02-14T19:43:52.851Z,6.40
2019-02-14T19:46:23.313Z,6.40
2019-02-14T19:51:23.347Z,6.40
2019-02-14T19:56:23.690Z,6.40
2019-02-14T20:01:23.748Z,6.40
2019-02-14T20:09:07.468Z,6.40
2019-02-14T20:11:38.883Z,6.40
2019-02-14T20:14:09.392Z,6.40
2019-02-14T20:16:39.759Z,6.30
2019-02-14T20:19:10.577Z,6.30
2019-02-14T20:21:42.035Z,6.40
2019-02-14T20:24:12.656Z,6.30
2019-02-14T20:26:43.216Z,6.40
2019-02-14T20:29:31.808Z,6.30
2019-02-14T20:32:03.264Z,6.30
2019-02-14T20:34:43.603Z,6.30
2019-02-14T20:37:42.507Z,6.30
2019-02-14T20:40:14.686Z,6.30
2019-02-14T20:42:45.156Z,6.30
2019-02-14T20:45:32.688Z,6.30
2019-02-14T20:48:03.422Z,6.30
2019-02-14T20:50:34.280Z,6.30
2019-02-14T20:53:04.824Z,6.30
2019-02-14T20:55:35.279Z,6.30
2019-02-14T20:58:05.840Z,6.30
2019-02-14T21:00:39.108Z,6.30
2019-02-14T21:03:09.529Z,6.30
2019-02-14T21:05:39.952Z,6.30
2019-02-14T21:08:10.704Z,6.30
2019-02-14T21:10:41.064Z,6.30
2019-02-14T21:13:11.426Z,6.30
2019-02-14T21:21:20.658Z,6.30
2019-02-14T21:41:44.180Z,6.20
2019-02-14T21:44:15.557Z,6.20
2019-02-14T21:46:48.909Z,6.20
2019-02-14T21:49:19.427Z,6.20
2019-02-14T21:51:49.907Z,6.20
2019-02-14T21:54:20.704Z,6.20
2019-02-14T21:57:50.651Z,6.20
2019-02-14T22:13:11.819Z,6.20
2019-02-14T22:15:42.266Z,6.20
2019-02-14T22:18:14.812Z,6.20
2019-02-14T22:20:46.540Z,6.10
2019-02-14T22:23:19.736Z,6.20
2019-02-14T22:25:57.174Z,6.10
2019-02-14T22:31:23.784Z,6.10
2019-02-14T22:33:54.188Z,6.10
2019-02-14T22:36:27.361Z,6.00
2019-02-14T22:38:57.805Z,6.00
2019-02-14T22:41:28.164Z,6.00
2019-02-14T22:43:58.552Z,5.90
2019-02-14T22:46:28.924Z,5.80
2019-02-14T22:48:59.363Z,5.80
2019-02-14T22:51:30.301Z,5.80
2019-02-14T22:54:00.701Z,5.70
2019-02-14T22:56:42.599Z,5.70
2019-02-14T22:59:13.137Z,5.70
2019-02-14T23:01:44.444Z,5.70
2019-02-14T23:04:14.845Z,5.60
2019-02-14T23:06:45.256Z,5.60
2019-02-14T23:09:15.864Z,5.60
2019-02-14T23:11:46.993Z,5.60
2019-02-14T23:14:20.984Z,5.60
2019-02-14T23:16:51.616Z,5.50
2019-02-14T23:19:22.076Z,5.40
2019-02-14T23:21:52.524Z,5.30
2019-02-14T23:24:22.918Z,5.20
2019-02-14T23:26:53.364Z,5.20
2019-02-14T23:29:23.880Z,5.10
2019-02-14T23:31:54.572Z,5.10
2019-02-14T23:34:25.055Z,5.10
2019-02-14T23:36:55.496Z,5.10
2019-02-14T23:39:25.888Z,5.10
2019-02-14T23:44:26.389Z,5.20
2019-02-14T23:46:56.808Z,5.20
2019-02-14T23:49:27.484Z,5.30
2019-02-14T23:51:57.863Z,5.30
2019-02-14T23:54:28.333Z,5.40
2019-02-14T23:56:59.056Z,5.40
2019-02-14T23:59:29.411Z,5.40
